Terminal Aerodrome Forecast
Issued by NWS Jacksonville, FL

Home | Current Version | Previous Version | Text Only | Print | Product List | Glossary On
Versions: 1 2 3 4 5 6 7 8 9 10 11 12 13 14 15 16 17 18 19 20 21 22
000
FTUS42 KJAX 290814 AAA
TAFSSI
TAF AMD
KSSI 290814Z 2908/3006 16010KT P6SM SCT010 BKN015
     FM291500 13013G20KT P6SM SCT020
     FM300100 13011KT P6SM SCT008 BKN015=

USA.gov is the U.S. government's official web portal to all federal, state and local government web resources and services.